Time;durP1;ratioP1;P1;durP2;ratioP2;P2;SDS_P1;SDS_P2;PMS_P1;PMS_P2;Temp;Humidity;BMP_temperature;BMP_pressure;BME280_temperature;BME280_humidity;BME280_pressure;Samples;Min_cycle;Max_cycle;Signal;HPM_P1;HPM_P2
2022/12/20 00:01:11;;;;;;;40.23;22.93;;;;;;;2.37;84.78;100902.88;5046573;28;20492;-74
2022/12/20 00:03:37;;;;;;;42.42;22.40;;;;;;;2.36;85.13;100890.53;5050623;28;20412;-74
2022/12/20 00:06:03;;;;;;;39.45;21.88;;;;;;;2.36;85.13;100889.72;5049692;28;20390;-74
2022/12/20 00:08:28;;;;;;;40.20;22.57;;;;;;;2.36;85.26;100882.53;5036460;28;20874;-74
2022/12/20 00:10:54;;;;;;;38.43;23.10;;;;;;;2.32;85.26;100886.56;5041660;28;20394;-74
2022/12/20 00:13:19;;;;;;;40.37;23.47;;;;;;;2.32;85.44;100875.88;5054579;28;20451;-74
2022/12/20 00:15:44;;;;;;;39.10;22.60;;;;;;;2.32;85.38;100878.53;5054590;28;20412;-74
2022/12/20 00:18:09;;;;;;;41.63;22.43;;;;;;;2.35;85.39;100872.00;5050237;28;20437;-74
2022/12/20 00:20:35;;;;;;;37.40;22.23;;;;;;;2.35;85.56;100866.66;5040424;28;20436;-74
2022/12/20 00:23:01;;;;;;;37.33;22.47;;;;;;;2.37;85.38;100869.97;5054428;28;20486;-74
2022/12/20 00:25:26;;;;;;;39.85;22.10;;;;;;;2.37;85.24;100880.69;5054583;28;20385;-74
2022/12/20 00:27:51;;;;;;;39.73;23.13;;;;;;;2.39;85.23;100875.97;5053418;28;20721;-74
2022/12/20 00:30:17;;;;;;;42.53;23.30;;;;;;;2.42;84.93;100878.28;5029535;28;20910;-73
2022/12/20 00:32:43;;;;;;;39.90;22.20;;;;;;;2.43;84.90;100880.78;5054211;28;20415;-74
2022/12/20 00:35:09;;;;;;;36.57;21.30;;;;;;;2.45;84.97;100878.75;5054128;28;20456;-74
2022/12/20 00:37:35;;;;;;;36.58;21.73;;;;;;;2.47;85.00;100881.25;5053148;28;20476;-74
2022/12/20 00:40:00;;;;;;;67.73;31.80;;;;;;;2.48;85.32;100883.72;5031204;28;20499;-74
2022/12/20 00:42:26;;;;;;;63.37;30.07;;;;;;;2.46;85.41;100882.25;5052680;28;20466;-74
2022/12/20 00:44:51;;;;;;;49.42;25.77;;;;;;;2.48;85.53;100881.06;5053641;28;20389;-74
2022/12/20 00:47:16;;;;;;;74.30;34.77;;;;;;;2.51;85.03;100870.00;5053650;28;20393;-74
2022/12/20 00:49:42;;;;;;;69.23;33.47;;;;;;;2.54;85.21;100871.47;5034024;28;20900;-74
2022/12/20 00:52:07;;;;;;;59.85;31.05;;;;;;;2.54;85.11;100864.28;5053694;28;20416;-74
2022/12/20 00:54:32;;;;;;;47.40;25.13;;;;;;;2.55;85.00;100865.09;5052487;28;20396;-74
2022/12/20 00:56:58;;;;;;;41.70;22.93;;;;;;;2.56;85.09;100869.47;5053885;28;20389;-74
2022/12/20 00:59:23;;;;;;;42.63;24.43;;;;;;;2.57;85.03;100863.06;5042677;28;20511;-74
2022/12/20 01:01:49;;;;;;;38.27;22.20;;;;;;;2.56;85.58;100862.25;5044754;28;20861;-74
2022/12/20 01:04:14;;;;;;;38.67;22.08;;;;;;;2.53;85.16;100859.97;5053685;28;20396;-74
2022/12/20 01:06:39;;;;;;;41.97;22.65;;;;;;;2.52;85.63;100857.44;5053839;28;20435;-74
2022/12/20 01:09:04;;;;;;;36.17;21.93;;;;;;;2.52;85.30;100860.13;5041197;28;20463;-74
2022/12/20 01:11:35;;;;;;;38.00;20.87;;;;;;;2.53;85.30;100881.38;5043402;28;20424;-74
2022/12/20 01:14:11;;;;;;;32.37;19.73;;;;;;;2.56;85.62;100872.13;5053415;28;20397;-74
2022/12/20 01:16:39;;;;;;;35.80;20.20;;;;;;;2.57;85.44;100869.25;5052219;28;20456;-75
2022/12/20 01:19:06;;;;;;;30.13;17.45;;;;;;;2.58;85.49;100862.06;5035794;28;20982;-74
2022/12/20 01:21:31;;;;;;;33.65;19.23;;;;;;;2.60;85.58;100866.22;5052317;28;20401;-74
2022/12/20 01:23:57;;;;;;;32.00;17.75;;;;;;;2.60;85.75;100855.50;5053227;28;20470;-74
2022/12/20 01:26:25;;;;;;;27.87;17.20;;;;;;;2.61;85.47;100859.03;5051941;28;20462;-74
2022/12/20 01:28:56;;;;;;;33.28;18.73;;;;;;;2.60;85.44;100854.72;5039545;28;20412;-74
2022/12/20 01:31:22;;;;;;;30.63;18.25;;;;;;;2.57;85.78;100850.53;5052926;28;20411;-74
2022/12/20 01:33:49;;;;;;;29.17;18.42;;;;;;;2.54;85.98;100845.53;5053227;28;20381;-74
2022/12/20 01:36:20;;;;;;;34.08;19.05;;;;;;;2.50;85.86;100851.47;5053188;28;20812;-73
2022/12/20 01:38:45;;;;;;;30.90;17.85;;;;;;;2.48;86.04;100837.41;5042292;28;20451;-74
2022/12/20 01:41:16;;;;;;;32.40;18.80;;;;;;;2.43;85.93;100832.63;5051725;28;20458;-73
2022/12/20 01:43:51;;;;;;;32.25;18.35;;;;;;;2.40;86.02;100842.88;5052801;28;20433;-74
2022/12/20 01:46:20;;;;;;;32.70;17.38;;;;;;;2.35;86.04;100851.44;5045384;28;20409;-74
2022/12/20 01:48:53;;;;;;;34.08;18.52;;;;;;;2.32;86.50;100846.44;5046834;28;20410;-74
2022/12/20 01:51:19;;;;;;;34.90;19.40;;;;;;;2.29;86.33;100862.03;5052636;28;20456;-74
2022/12/20 01:53:47;;;;;;;36.05;20.08;;;;;;;2.29;86.33;100848.66;5051534;28;20385;-73
2022/12/20 01:56:12;;;;;;;33.90;19.43;;;;;;;2.31;86.33;100844.78;5051593;28;20396;-74
2022/12/20 01:58:39;;;;;;;34.60;19.40;;;;;;;2.35;86.75;100845.25;5048880;28;20409;-74
2022/12/20 02:01:04;;;;;;;35.50;20.88;;;;;;;2.40;86.67;100833.00;5052812;28;20386;-74
2022/12/20 02:03:31;;;;;;;33.63;19.02;;;;;;;2.44;86.24;100836.97;5042030;28;20387;-74
2022/12/20 02:05:56;;;;;;;36.95;19.33;;;;;;;2.49;86.53;100833.75;5049233;28;20480;-73
2022/12/20 02:08:22;;;;;;;35.78;20.42;;;;;;;2.54;86.37;100842.88;5044878;28;20492;-74
2022/12/20 02:11:39;;;;;;;39.30;20.50;;;;;;;2.58;85.94;100841.50;5028221;28;20390;-74
2022/12/20 02:14:50;;;;;;;33.08;19.10;;;;;;;2.63;86.35;100837.44;5028188;28;20412;-73
2022/12/20 02:17:43;;;;;;;33.87;19.67;;;;;;;2.67;85.80;100823.50;4987092;28;20399;-74
2022/12/20 02:20:45;;;;;;;32.35;18.98;;;;;;;2.68;85.93;100819.81;5039962;28;20432;-74
2022/12/20 02:23:32;;;;;;;34.55;19.05;;;;;;;2.68;86.00;100802.91;5052184;28;20450;-74
2022/12/20 02:26:25;;;;;;;33.27;18.27;;;;;;;2.68;85.94;100805.59;5051134;28;20433;-74
2022/12/20 02:29:17;;;;;;;33.53;18.63;;;;;;;2.67;86.19;100804.75;5040666;28;20415;-74
2022/12/20 02:32:03;;;;;;;34.25;17.45;;;;;;;2.64;85.93;100794.44;5048144;28;20888;-74
2022/12/20 02:34:31;;;;;;;31.48;17.58;;;;;;;2.63;86.37;100799.97;5051936;28;20386;-74
2022/12/20 02:36:57;;;;;;;29.63;18.07;;;;;;;2.64;86.24;100794.44;5052012;28;20381;-74
2022/12/20 02:39:25;;;;;;;33.87;18.87;;;;;;;2.65;86.05;100781.88;5022455;28;20435;-74
2022/12/20 02:41:55;;;;;;;31.73;17.47;;;;;;;2.66;85.90;100778.22;5051437;28;20390;-74
2022/12/20 02:47:17;;;;;;;29.92;17.88;;;;;;;2.68;86.10;100790.38;5051680;28;20405;-74
2022/12/20 02:49:43;;;;;;;30.38;18.15;;;;;;;2.69;86.29;100788.53;5035706;28;20475;-73
2022/12/20 02:52:11;;;;;;;32.03;17.52;;;;;;;2.69;86.15;100802.75;5034248;28;20765;-74
2022/12/20 02:54:37;;;;;;;31.80;17.65;;;;;;;2.70;85.90;100798.25;5036595;28;20393;-74
2022/12/20 02:57:11;;;;;;;35.13;18.13;;;;;;;2.66;86.32;100796.94;5050041;28;20745;-74
2022/12/20 02:59:46;;;;;;;29.90;17.73;;;;;;;2.67;86.46;100796.75;5030391;28;20405;-74
2022/12/20 03:02:11;;;;;;;30.92;17.88;;;;;;;2.65;85.98;100795.28;5051402;28;20509;-74
2022/12/20 03:04:39;;;;;;;28.13;17.43;;;;;;;2.64;86.19;100789.09;5051413;28;20378;-74
2022/12/20 03:07:11;;;;;;;31.10;18.90;;;;;;;2.63;86.40;100789.28;5050262;28;20730;-75
2022/12/20 03:09:40;;;;;;;33.28;18.70;;;;;;;2.60;86.38;100793.97;5040346;28;20405;-74
2022/12/20 03:12:06;;;;;;;34.20;19.25;;;;;;;2.59;86.29;100791.50;5046354;28;20420;-74
2022/12/20 03:14:31;;;;;;;33.70;19.00;;;;;;;2.59;86.43;100789.66;5051169;28;20425;-74
2022/12/20 03:16:57;;;;;;;34.60;18.67;;;;;;;2.59;86.04;100792.34;5050081;28;20429;-74
2022/12/20 03:19:23;;;;;;;34.70;19.17;;;;;;;2.60;86.38;100790.50;5031275;28;20398;-74
2022/12/20 03:21:48;;;;;;;31.30;17.85;;;;;;;2.59;86.37;100797.69;5039602;28;20911;-74
2022/12/20 03:24:13;;;;;;;32.75;18.88;;;;;;;2.57;86.43;100783.63;5050927;28;20472;-74
2022/12/20 03:26:40;;;;;;;27.48;17.77;;;;;;;2.55;86.41;100784.84;5049965;28;20389;-74
2022/12/20 03:29:05;;;;;;;31.33;18.60;;;;;;;2.56;86.34;100775.81;5020427;28;20761;-74
2022/12/20 03:31:31;;;;;;;29.90;18.07;;;;;;;2.54;86.23;100781.34;5045675;28;20405;-74
2022/12/20 03:33:56;;;;;;;33.40;18.57;;;;;;;2.54;86.62;100776.00;5050908;28;20397;-74
2022/12/20 03:36:23;;;;;;;30.57;18.40;;;;;;;2.56;86.47;100773.16;5014676;28;20896;-73
2022/12/20 03:38:52;;;;;;;31.30;19.15;;;;;;;2.54;86.36;100769.81;5030987;28;20412;-73
2022/12/20 03:41:20;;;;;;;30.80;18.98;;;;;;;2.55;86.52;100766.97;5049558;28;20405;-73
2022/12/20 03:43:45;;;;;;;31.33;19.45;;;;;;;2.58;86.56;100763.06;5050422;28;20726;-74
2022/12/20 03:46:10;;;;;;;33.00;18.77;;;;;;;2.53;86.60;100757.47;5049297;28;20420;-74
2022/12/20 03:48:36;;;;;;;36.93;20.27;;;;;;;2.53;86.82;100762.81;5040433;28;20413;-73
2022/12/20 03:51:01;;;;;;;33.13;18.53;;;;;;;2.57;86.63;100766.75;5050581;28;20917;-74
2022/12/20 03:53:26;;;;;;;36.95;19.05;;;;;;;2.59;86.43;100767.41;5050790;28;20392;-73
2022/12/20 03:55:51;;;;;;;33.60;19.20;;;;;;;2.63;86.59;100767.88;5049622;28;20420;-74
2022/12/20 03:58:17;;;;;;;36.00;20.10;;;;;;;2.63;86.53;100758.81;5043162;28;20455;-74
2022/12/20 04:00:42;;;;;;;31.10;18.80;;;;;;;2.63;86.77;100760.69;5050608;28;20824;-74
2022/12/20 04:03:07;;;;;;;30.23;18.67;;;;;;;2.64;86.41;100751.63;5050481;28;20393;-74
2022/12/20 04:05:33;;;;;;;30.97;18.33;;;;;;;2.65;86.30;100755.97;5049125;28;20397;-74
2022/12/20 04:07:58;;;;;;;30.57;19.30;;;;;;;2.67;86.39;100758.47;5047193;28;20794;-74
2022/12/20 04:10:23;;;;;;;33.05;19.08;;;;;;;2.68;86.50;100762.78;5050503;28;20402;-74
2022/12/20 04:12:49;;;;;;;33.00;20.20;;;;;;;2.68;86.16;100760.09;5050501;28;20405;-74
2022/12/20 04:15:14;;;;;;;34.07;18.97;;;;;;;2.70;86.72;100758.09;5050534;28;20393;-74
2022/12/20 04:17:39;;;;;;;31.87;19.03;;;;;;;2.71;86.57;100746.34;5036177;28;20778;-74
2022/12/20 04:20:17;;;;;;;29.33;17.83;;;;;;;2.70;86.37;100740.16;5046831;28;20411;-74
2022/12/20 04:22:45;;;;;;;27.63;17.65;;;;;;;2.69;86.27;100741.22;5049870;28;20393;-74
2022/12/20 04:25:10;;;;;;;28.55;17.23;;;;;;;2.70;86.29;100734.81;5050539;28;20467;-74
2022/12/20 04:27:35;;;;;;;26.17;16.87;;;;;;;2.72;86.19;100726.63;5044568;28;20422;-74
2022/12/20 04:30:01;;;;;;;28.03;15.87;;;;;;;2.72;86.49;100726.63;5049543;28;20476;-74
2022/12/20 04:32:26;;;;;;;27.70;16.67;;;;;;;2.75;86.45;100731.59;5050163;28;20467;-74
2022/12/20 04:34:51;;;;;;;32.07;17.83;;;;;;;2.76;86.35;100730.59;5050226;28;20389;-73
2022/12/20 04:37:16;;;;;;;27.07;16.83;;;;;;;2.75;86.45;100728.91;5050456;28;20389;-74
2022/12/20 04:39:42;;;;;;;22.80;15.93;;;;;;;2.79;86.31;100730.19;5015206;28;20395;-74
2022/12/20 04:42:07;;;;;;;24.90;16.23;;;;;;;2.78;86.32;100718.66;5024500;28;20386;-74
2022/12/20 04:44:32;;;;;;;27.87;15.13;;;;;;;2.78;86.21;100710.63;5050424;28;20439;-74
2022/12/20 04:46:57;;;;;;;23.67;15.50;;;;;;;2.80;86.35;100716.63;5045818;28;20417;-74
2022/12/20 04:49:23;;;;;;;26.03;16.07;;;;;;;2.79;86.37;100717.66;5036096;28;20455;-74
2022/12/20 04:51:48;;;;;;;24.77;15.67;;;;;;;2.78;86.25;100707.97;5050094;28;20409;-74
2022/12/20 04:54:13;;;;;;;23.53;15.33;;;;;;;2.79;86.26;100711.47;5048978;28;20406;-74
2022/12/20 04:56:38;;;;;;;19.63;12.53;;;;;;;2.78;86.30;100717.84;5051665;28;20389;-74
2022/12/20 04:59:04;;;;;;;25.37;14.23;;;;;;;2.77;86.28;100722.34;5035922;28;20780;-74
2022/12/20 05:01:29;;;;;;;24.97;14.20;;;;;;;2.77;86.27;100716.16;5053645;28;20398;-74
2022/12/20 05:03:54;;;;;;;23.53;14.30;;;;;;;2.75;86.41;100719.03;5052194;28;20432;-74
2022/12/20 05:06:20;;;;;;;24.37;14.47;;;;;;;2.75;86.16;100723.56;5053672;28;20397;-73
2022/12/20 05:08:45;;;;;;;23.07;14.13;;;;;;;2.79;86.35;100717.66;5040635;28;20415;-74
2022/12/20 05:11:11;;;;;;;25.67;14.80;;;;;;;2.83;86.23;100718.13;5051848;28;20830;-74
2022/12/20 05:13:36;;;;;;;30.98;17.63;;;;;;;2.85;86.22;100711.53;5053542;28;20389;-74
2022/12/20 05:16:02;;;;;;;28.27;17.53;;;;;;;2.86;86.37;100705.19;5053481;28;20459;-74
2022/12/20 05:18:28;;;;;;;25.27;15.48;;;;;;;2.88;86.20;100700.47;5037608;28;20910;-74
2022/12/20 05:26:29;;;;;;;23.65;15.07;;;;;;;2.92;86.41;100699.06;5051857;28;20447;-73
2022/12/20 05:28:54;;;;;;;27.13;15.25;;;;;;;2.94;86.49;100709.56;5025197;28;20404;-73
2022/12/20 05:31:20;;;;;;;25.47;14.87;;;;;;;2.93;86.36;100710.59;5046237;28;20407;-74
2022/12/20 05:33:45;;;;;;;25.70;15.97;;;;;;;2.93;86.33;100716.75;5026880;28;20429;-74
2022/12/20 05:36:10;;;;;;;27.40;17.05;;;;;;;2.93;86.56;100721.31;5037406;28;20414;-74
2022/12/20 05:38:35;;;;;;;24.40;16.07;;;;;;;2.94;86.42;100725.63;5024463;28;20490;-74
2022/12/20 05:41:03;;;;;;;29.37;16.57;;;;;;;2.95;86.84;100721.94;5033327;28;20408;-73
2022/12/20 05:43:29;;;;;;;31.02;17.30;;;;;;;2.96;86.62;100726.28;5048367;28;20389;-74
2022/12/20 05:45:54;;;;;;;25.00;16.57;;;;;;;2.99;86.45;100731.28;5041553;28;20773;-74
2022/12/20 05:48:19;;;;;;;33.77;17.40;;;;;;;2.97;86.61;100710.03;5050395;28;20782;-73
2022/12/20 05:50:46;;;;;;;29.73;16.53;;;;;;;3.00;86.43;100715.00;5052895;28;20382;-74
2022/12/20 05:53:13;;;;;;;29.40;16.90;;;;;;;3.00;86.43;100708.81;5045676;28;20561;-74
2022/12/20 05:55:43;;;;;;;32.17;17.67;;;;;;;3.00;86.46;100706.97;5037247;28;20422;-74
2022/12/20 05:58:12;;;;;;;27.80;16.13;;;;;;;3.00;86.26;100708.81;5031576;28;20398;-74
2022/12/20 06:00:37;;;;;;;26.67;16.00;;;;;;;2.97;86.63;100709.19;5036862;28;20584;-73
2022/12/20 06:03:03;;;;;;;27.63;17.37;;;;;;;2.96;86.46;100704.88;5037694;28;20497;-74
2022/12/20 06:05:28;;;;;;;36.00;21.47;;;;;;;2.98;86.96;100714.38;5045682;28;20756;-74
2022/12/20 06:07:53;;;;;;;30.50;17.73;;;;;;;2.99;86.70;100718.72;5042660;28;20391;-74
2022/12/20 06:10:18;;;;;;;28.17;16.77;;;;;;;3.01;86.84;100718.50;5052069;28;20400;-74
2022/12/20 06:12:44;;;;;;;25.20;15.77;;;;;;;2.99;86.82;100716.03;5052288;28;20483;-74
2022/12/20 06:15:09;;;;;;;31.48;18.05;;;;;;;3.00;86.66;100703.47;5052077;28;20801;-73
2022/12/20 06:17:35;;;;;;;27.88;15.77;;;;;;;2.98;86.72;100708.19;5041557;28;20394;-74
2022/12/20 06:20:00;;;;;;;30.53;16.90;;;;;;;2.97;86.66;100706.50;5025889;28;20441;-74
2022/12/20 06:22:25;;;;;;;31.00;17.20;;;;;;;2.99;86.79;100701.81;5049620;28;20418;-74
2022/12/20 06:24:50;;;;;;;29.90;17.20;;;;;;;3.00;86.52;100698.09;5034825;28;20464;-74
2022/12/20 06:27:17;;;;;;;34.20;18.17;;;;;;;3.02;86.62;100690.72;5038810;28;20407;-74
2022/12/20 06:29:50;;;;;;;34.55;18.42;;;;;;;3.04;86.67;100697.53;5021457;28;20917;-74
2022/12/20 06:32:16;;;;;;;33.28;17.73;;;;;;;3.05;86.71;100691.19;5047213;28;20419;-74
2022/12/20 06:34:41;;;;;;;32.67;17.50;;;;;;;3.08;86.69;100687.28;5027915;28;20776;-73
2022/12/20 06:37:06;;;;;;;26.00;16.00;;;;;;;3.10;86.50;100685.22;5022038;28;20405;-75
2022/12/20 06:39:32;;;;;;;32.23;19.03;;;;;;;3.09;86.79;100691.63;5022225;28;20403;-74
2022/12/20 06:41:57;;;;;;;27.23;17.83;;;;;;;3.09;86.79;100676.41;5024818;28;20405;-74
2022/12/20 06:44:22;;;;;;;29.40;18.52;;;;;;;3.10;86.67;100678.03;5029474;28;20815;-74
2022/12/20 06:46:47;;;;;;;35.27;19.10;;;;;;;3.11;86.64;100676.19;5027921;28;20426;-74
2022/12/20 06:49:13;;;;;;;37.80;21.63;;;;;;;3.14;86.74;100673.97;5038640;28;20405;-74
2022/12/20 06:51:38;;;;;;;35.47;21.27;;;;;;;3.17;86.67;100674.59;5030929;28;20432;-74
2022/12/20 06:54:03;;;;;;;30.57;19.63;;;;;;;3.20;86.84;100675.03;5024680;28;20402;-74
2022/12/20 06:56:29;;;;;;;31.13;17.43;;;;;;;3.23;86.74;100673.84;5019988;28;20891;-74
2022/12/20 06:58:54;;;;;;;33.22;19.42;;;;;;;3.25;86.97;100669.94;5013450;28;20395;-74
2022/12/20 07:01:19;;;;;;;37.30;20.93;;;;;;;3.26;86.77;100671.59;5031950;28;20395;-74
2022/12/20 07:03:45;;;;;;;32.00;20.63;;;;;;;3.25;86.75;100664.59;5026828;28;20399;-73
2022/12/20 07:06:10;;;;;;;30.70;18.75;;;;;;;3.25;86.89;100667.28;5022625;28;20908;-74
2022/12/20 07:08:35;;;;;;;31.10;17.97;;;;;;;3.27;86.82;100669.72;5020485;28;20491;-74
2022/12/20 07:11:05;;;;;;;25.90;16.77;;;;;;;3.28;86.85;100664.19;5019382;28;20796;-74
2022/12/20 07:13:31;;;;;;;31.30;18.53;;;;;;;3.29;86.99;100659.69;5045379;28;20412;-74
2022/12/20 07:15:58;;;;;;;31.40;16.93;;;;;;;3.29;86.93;100657.84;5022907;28;20751;-74
2022/12/20 07:18:23;;;;;;;40.17;18.00;;;;;;;3.29;86.91;100665.88;5033314;28;20417;-73
2022/12/20 07:20:48;;;;;;;91.10;30.23;;;;;;;3.31;86.97;100662.97;5020129;28;20738;-74
2022/12/20 07:23:13;;;;;;;52.13;25.73;;;;;;;3.33;86.90;100667.13;5031318;28;20414;-74
2022/12/20 07:25:39;;;;;;;44.53;22.43;;;;;;;3.36;86.97;100669.41;5035733;28;20936;-74
2022/12/20 07:28:04;;;;;;;33.67;18.73;;;;;;;3.38;86.87;100672.75;5028098;28;20430;-74
2022/12/20 07:30:30;;;;;;;29.43;18.17;;;;;;;3.41;87.03;100661.63;5047381;28;20400;-74
2022/12/20 07:32:55;;;;;;;31.38;17.50;;;;;;;3.44;86.68;100668.44;5049228;28;20490;-74
2022/12/20 07:35:20;;;;;;;31.92;18.35;;;;;;;3.43;86.85;100659.56;5050879;28;20394;-74
2022/12/20 07:37:45;;;;;;;33.33;19.10;;;;;;;3.47;86.77;100662.69;5030659;28;20406;-74
2022/12/20 07:40:11;;;;;;;31.07;18.07;;;;;;;3.47;87.12;100657.34;5022461;28;20892;-74
2022/12/20 07:42:36;;;;;;;33.08;18.63;;;;;;;3.48;86.83;100646.44;5037916;28;20400;-74
2022/12/20 07:45:02;;;;;;;33.17;19.20;;;;;;;3.51;86.89;100645.22;5026693;28;20738;-74
2022/12/20 07:47:27;;;;;;;32.53;19.40;;;;;;;3.54;87.00;100659.06;5028709;28;20429;-74
2022/12/20 07:49:53;;;;;;;37.57;20.53;;;;;;;3.55;87.00;100651.84;5033420;28;20403;-75
2022/12/20 07:52:22;;;;;;;33.57;19.53;;;;;;;3.56;86.82;100648.97;5047632;28;20413;-74
2022/12/20 07:54:58;;;;;;;38.10;21.13;;;;;;;3.59;86.57;100637.84;5024083;28;20451;-75
2022/12/20 07:57:33;;;;;;;37.23;21.67;;;;;;;3.63;86.83;100643.66;5032381;28;20460;-75
2022/12/20 08:00:00;;;;;;;38.03;23.83;;;;;;;3.66;86.60;100646.78;5040376;28;20445;-74
2022/12/20 08:02:31;;;;;;;42.70;24.80;;;;;;;3.69;86.70;100645.56;5038563;28;20401;-74
2022/12/20 08:04:57;;;;;;;41.93;23.03;;;;;;;3.70;86.58;100641.84;5046135;28;20418;-74
2022/12/20 08:07:23;;;;;;;33.87;21.67;;;;;;;3.74;86.65;100643.13;5045638;28;20398;-74
2022/12/20 08:09:49;;;;;;;36.80;22.45;;;;;;;3.73;86.43;100643.31;5045414;28;20440;-75
2022/12/20 08:12:17;;;;;;;38.73;22.53;;;;;;;3.75;86.41;100641.28;5048652;28;20817;-74
2022/12/20 08:14:43;;;;;;;30.98;20.10;;;;;;;3.76;86.39;100642.91;5024845;28;20446;-73
2022/12/20 08:17:08;;;;;;;43.35;23.40;;;;;;;3.75;86.33;100635.91;5021241;28;20404;-74
2022/12/20 08:19:34;;;;;;;41.33;25.50;;;;;;;3.73;86.42;100638.78;5030958;28;20400;-74
2022/12/20 08:21:59;;;;;;;39.60;24.33;;;;;;;3.74;86.48;100635.09;5031175;28;20416;-74
2022/12/20 08:24:24;;;;;;;33.03;20.50;;;;;;;3.75;86.49;100623.34;5031985;28;20399;-74
2022/12/20 08:26:50;;;;;;;31.03;18.40;;;;;;;3.79;86.75;100623.78;5038452;28;20459;-74
2022/12/20 08:29:15;;;;;;;27.83;17.07;;;;;;;3.84;86.79;100624.00;5037016;28;20402;-75
2022/12/20 08:31:43;;;;;;;31.30;17.25;;;;;;;3.87;86.37;100629.81;5036459;28;20407;-74
2022/12/20 08:34:09;;;;;;;23.83;15.18;;;;;;;3.89;86.08;100618.88;5047690;28;20421;-74
2022/12/20 08:36:34;;;;;;;21.53;14.37;;;;;;;3.89;86.37;100617.03;5035639;28;20868;-74
2022/12/20 08:39:04;;;;;;;22.10;14.67;;;;;;;3.91;86.20;100614.16;5053439;28;20721;-74
2022/12/20 08:41:42;;;;;;;27.45;14.77;;;;;;;3.91;86.16;100609.63;5021455;28;20400;-74
2022/12/20 08:44:09;;;;;;;25.33;15.68;;;;;;;3.94;86.16;100616.44;5054696;28;20381;-74
2022/12/20 08:46:35;;;;;;;19.55;13.63;;;;;;;3.99;86.23;100609.44;5051882;28;20397;-74
2022/12/20 08:49:01;;;;;;;26.52;14.90;;;;;;;4.04;86.18;100608.88;5053616;28;20998;-74
2022/12/20 08:51:27;;;;;;;23.27;14.80;;;;;;;4.11;85.95;100612.41;5034277;28;20410;-74
2022/12/20 08:53:53;;;;;;;22.95;14.88;;;;;;;4.18;85.71;100603.34;5038827;28;20851;-74
2022/12/20 08:56:19;;;;;;;25.50;16.40;;;;;;;4.31;85.75;100605.28;5048053;28;20479;-74
2022/12/20 08:58:44;;;;;;;26.43;16.90;;;;;;;4.33;84.88;100605.91;5047795;28;20393;-74
2022/12/20 09:01:12;;;;;;;26.03;17.20;;;;;;;4.31;85.14;100609.81;5051451;28;20404;-74
2022/12/20 09:03:39;;;;;;;27.92;16.83;;;;;;;4.30;85.27;100600.09;5053558;28;20393;-73
2022/12/20 09:06:07;;;;;;;31.55;17.85;;;;;;;4.32;85.33;100598.88;5053574;28;20393;-73
2022/12/20 09:08:33;;;;;;;28.75;16.80;;;;;;;4.40;85.39;100597.88;5041830;28;20387;-73
2022/12/20 09:11:07;;;;;;;32.42;15.90;;;;;;;4.52;85.29;100598.94;5024355;28;20872;-73
2022/12/20 09:13:33;;;;;;;34.22;17.52;;;;;;;4.53;85.13;100611.31;5045649;28;20409;-74
2022/12/20 09:16:00;;;;;;;29.27;19.25;;;;;;;4.59;85.11;100610.50;5050503;28;20397;-74
2022/12/20 09:18:26;;;;;;;33.88;19.73;;;;;;;4.69;84.69;100610.97;5052871;28;20551;-74
2022/12/20 09:20:51;;;;;;;30.07;18.33;;;;;;;4.78;84.42;100616.94;5028685;28;20982;-74
2022/12/20 09:23:16;;;;;;;32.03;19.30;;;;;;;4.84;84.03;100613.47;5039565;28;20495;-73
2022/12/20 09:25:42;;;;;;;30.45;17.83;;;;;;;4.91;84.35;100615.13;5042726;28;20446;-74
2022/12/20 09:28:07;;;;;;;28.13;18.03;;;;;;;4.93;83.86;100605.03;5028910;28;20397;-74
2022/12/20 09:30:32;;;;;;;29.47;16.57;;;;;;;4.94;83.95;100617.41;5029032;28;20886;-74
2022/12/20 09:32:58;;;;;;;21.70;15.07;;;;;;;4.87;84.14;100618.44;5021708;28;20894;-74
2022/12/20 09:35:23;;;;;;;23.73;15.97;;;;;;;4.82;84.12;100612.84;5021708;28;20407;-74
2022/12/20 09:37:48;;;;;;;24.43;16.87;;;;;;;4.80;84.43;100617.59;5037774;28;20476;-74
2022/12/20 09:40:21;;;;;;;27.17;16.42;;;;;;;4.80;84.53;100612.22;5049763;28;20397;-74
2022/12/20 09:42:48;;;;;;;25.45;16.38;;;;;;;4.80;84.40;100618.44;5023096;28;20868;-74
2022/12/20 09:45:26;;;;;;;22.13;14.98;;;;;;;4.78;84.33;100623.16;5027846;28;20421;-74
2022/12/20 09:47:52;;;;;;;24.98;15.68;;;;;;;4.78;84.82;100617.78;5040623;28;20892;-74
2022/12/20 09:50:19;;;;;;;21.10;13.88;;;;;;;4.80;84.84;100615.75;5046535;28;20431;-73
2022/12/20 09:53:11;;;;;;;24.27;15.33;;;;;;;4.85;85.04;100617.78;5052606;28;20410;-74
2022/12/20 09:55:42;;;;;;;20.27;13.83;;;;;;;4.88;84.39;100614.69;5039121;28;20918;-74
2022/12/20 09:58:22;;;;;;;21.83;13.32;;;;;;;4.90;84.74;100605.44;5033892;28;20440;-74
2022/12/20 10:00:49;;;;;;;24.73;14.55;;;;;;;4.92;84.35;100592.63;5018938;28;20812;-74
2022/12/20 10:03:21;;;;;;;20.33;13.90;;;;;;;5.00;84.62;100605.88;5035810;28;20396;-74
2022/12/20 10:05:53;;;;;;;24.73;14.32;;;;;;;5.09;84.32;100595.72;5023513;28;20756;-74
2022/12/20 10:08:24;;;;;;;20.55;13.35;;;;;;;5.14;84.57;100594.06;5039970;28;20430;-74
2022/12/20 10:10:58;;;;;;;13.90;9.85;;;;;;;5.19;84.50;100594.28;5035312;28;20401;-76
2022/12/20 10:13:58;;;;;;;19.77;12.23;;;;;;;5.26;84.11;100586.25;5022797;28;20776;-74
2022/12/20 10:16:39;;;;;;;14.57;9.60;;;;;;;5.34;83.71;100582.50;5024166;28;20395;-75
2022/12/20 10:19:33;;;;;;;24.55;13.00;;;;;;;5.44;83.51;100586.41;5031926;28;20469;-75
2022/12/20 10:22:21;;;;;;;19.20;11.57;;;;;;;5.50;83.45;100582.88;5025549;28;20425;-75
2022/12/20 10:25:00;;;;;;;15.02;10.75;;;;;;;5.58;83.57;100592.59;5024750;28;20403;-75
2022/12/20 10:27:25;;;;;;;16.07;11.40;;;;;;;5.68;83.36;100584.94;5021487;28;20430;-75
2022/12/20 10:29:51;;;;;;;18.43;12.30;;;;;;;5.80;82.76;100575.19;5023989;28;20872;-74
2022/12/20 10:32:22;;;;;;;16.47;10.93;;;;;;;5.85;82.73;100571.88;5033493;28;20753;-74
2022/12/20 10:35:09;;;;;;;17.38;11.40;;;;;;;5.93;83.04;100569.00;5021121;28;20404;-75
2022/12/20 10:37:59;;;;;;;23.30;11.00;;;;;;;6.07;82.10;100560.66;5039441;28;20418;-74
2022/12/20 10:40:27;;;;;;;19.08;11.43;;;;;;;6.16;82.12;100561.22;5022426;28;20431;-74
2022/12/20 10:42:53;;;;;;;18.33;11.80;;;;;;;6.16;81.43;100556.66;5051732;28;20394;-74
2022/12/20 10:45:21;;;;;;;13.17;9.63;;;;;;;6.08;81.86;100545.34;5018867;28;20420;-74
2022/12/20 10:47:49;;;;;;;15.30;10.68;;;;;;;5.97;82.36;100546.00;5028488;28;20819;-74
2022/12/20 10:50:18;;;;;;;18.73;12.50;;;;;;;5.86;82.49;100542.09;5044767;28;20871;-74
2022/12/20 10:52:44;;;;;;;20.40;13.70;;;;;;;5.78;83.21;100536.94;5013235;28;20416;-74
2022/12/20 10:55:42;;;;;;;17.48;11.85;;;;;;;5.73;83.28;100542.09;5024426;28;20407;-75
2022/12/20 10:58:16;;;;;;;26.85;15.57;;;;;;;5.69;83.77;100551.66;5018457;28;20873;-74
2022/12/20 11:00:43;;;;;;;26.85;16.38;;;;;;;5.64;83.47;100544.22;5038904;28;20748;-74
2022/12/20 11:03:14;;;;;;;24.23;15.70;;;;;;;5.65;83.79;100529.75;5043093;28;20968;-75
2022/12/20 11:05:51;;;;;;;22.63;13.93;;;;;;;5.63;83.62;100515.66;5025810;28;20405;-75
2022/12/20 11:08:17;;;;;;;18.83;13.05;;;;;;;5.71;83.30;100512.75;5040681;28;20409;-74
2022/12/20 11:10:43;;;;;;;23.65;15.40;;;;;;;5.76;83.44;100507.56;5028534;28;20401;-75
2022/12/20 11:13:19;;;;;;;21.15;14.65;;;;;;;5.77;83.37;100489.56;5033191;28;20519;-74
2022/12/20 11:15:50;;;;;;;20.88;13.60;;;;;;;5.79;83.13;100476.75;5039611;28;20744;-74
2022/12/20 11:18:34;;;;;;;24.25;15.38;;;;;;;5.82;82.97;100478.16;5038112;28;20423;-74
2022/12/20 11:21:05;;;;;;;23.25;14.13;;;;;;;5.88;82.90;100478.19;5034214;28;20420;-74
2022/12/20 11:24:02;;;;;;;23.00;14.60;;;;;;;5.93;83.28;100483.72;5051061;28;20396;-74
2022/12/20 11:26:44;;;;;;;23.75;13.98;;;;;;;6.11;82.60;100489.25;5026931;28;20418;-75
2022/12/20 11:29:21;;;;;;;23.98;14.93;;;;;;;6.19;82.00;100498.94;5024436;28;20393;-75
2022/12/20 11:32:09;;;;;;;31.13;16.67;;;;;;;6.22;82.61;100493.13;5038903;28;20405;-75